Terminal Aerodrome Forecast
Issued by NWS Amarillo, TX

Home | Current Version | Previous Version | Text Only | Print | Product List | Glossary On
Versions: 1 2 3 4 5 6 7 8 9 10 11 12 13 14 15 16 17
000
FTUS44 KAMA 270500
TAFGUY
TAF
KGUY 270525Z 2706/2806 09010KT P6SM FEW025 OVC060
     FM270900 10010KT 5SM -SN OVC025
     FM271200 10012KT 2SM -SN OVC010
     FM271600 14014KT 4SM -SN OVC015=

USA.gov is the U.S. government's official web portal to all federal, state and local government web resources and services.